createdAt,value
2024-04-13T00:01:20.273Z,100812.92
2024-04-13T00:03:47.502Z,100812.52
2024-04-13T00:06:14.484Z,100805.27
2024-04-13T00:08:41.888Z,100806.87
2024-04-13T00:11:09.635Z,100805.95
2024-04-13T00:13:37.558Z,100799.80
2024-04-13T00:16:04.680Z,100791.41
2024-04-13T00:18:34.307Z,100790.27
2024-04-13T00:21:01.426Z,100787.25
2024-04-13T00:23:29.179Z,100786.08
2024-04-13T00:25:57.981Z,100784.04
2024-04-13T00:28:25.116Z,100780.73
2024-04-13T00:30:52.379Z,100775.23
2024-04-13T00:33:20.592Z,100772.02
2024-04-13T00:35:47.819Z,100770.34
2024-04-13T00:38:14.821Z,100766.89
2024-04-13T00:40:43.296Z,100769.77
2024-04-13T00:43:11.459Z,100767.98
2024-04-13T00:45:44.077Z,100765.21
2024-04-13T00:48:12.796Z,100763.27
2024-04-13T00:50:39.605Z,100762.31
2024-04-13T00:53:06.835Z,100760.43
2024-04-13T00:55:34.667Z,100757.14
2024-04-13T00:58:02.110Z,100754.13
2024-04-13T01:00:29.344Z,100750.62
2024-04-13T01:02:56.502Z,100748.61
2024-04-13T01:05:23.544Z,100747.70
2024-04-13T01:07:50.758Z,100749.97
2024-04-13T01:10:18.694Z,100744.94
2024-04-13T01:12:47.432Z,100744.46
2024-04-13T01:15:14.298Z,100744.13
2024-04-13T01:17:43.303Z,100747.36
2024-04-13T01:20:11.050Z,100741.60
2024-04-13T01:22:43.578Z,100735.15
2024-04-13T01:25:11.338Z,100744.92
2024-04-13T01:27:38.778Z,100742.22
2024-04-13T01:30:09.164Z,100742.19
2024-04-13T01:32:36.086Z,100739.38
2024-04-13T01:35:12.569Z,100735.73
2024-04-13T01:37:40.567Z,100732.74
2024-04-13T01:40:09.791Z,100728.84
2024-04-13T01:42:36.583Z,100728.21
2024-04-13T01:45:03.989Z,100728.86
2024-04-13T01:47:31.222Z,100729.30
2024-04-13T01:49:58.225Z,100728.51
2024-04-13T01:52:25.190Z,100731.37
2024-04-13T01:54:52.140Z,100728.23
2024-04-13T01:57:20.064Z,100726.63
2024-04-13T01:59:47.113Z,100725.05
2024-04-13T02:02:14.271Z,100724.00
2024-04-13T02:04:41.051Z,100715.66
2024-04-13T02:07:08.380Z,100716.35
2024-04-13T02:09:35.675Z,100715.45
2024-04-13T02:12:03.334Z,100712.30
2024-04-13T02:14:30.266Z,100709.29
2024-04-13T02:16:57.667Z,100718.55
2024-04-13T02:19:24.788Z,100715.95
2024-04-13T02:21:52.160Z,100717.91
2024-04-13T02:24:18.968Z,100716.95
2024-04-13T02:26:46.105Z,100717.84
2024-04-13T02:29:13.048Z,100716.16
2024-04-13T02:31:39.942Z,100713.20
2024-04-13T02:34:07.039Z,100712.52
2024-04-13T02:36:34.475Z,100704.64
2024-04-13T02:39:02.780Z,100706.36
2024-04-13T02:41:29.641Z,100706.73
2024-04-13T02:43:56.579Z,100704.14
2024-04-13T02:46:24.548Z,100703.66
2024-04-13T02:48:51.707Z,100704.47
2024-04-13T02:51:18.867Z,100699.86
2024-04-13T02:53:45.931Z,100697.49
2024-04-13T02:56:12.965Z,100695.80
2024-04-13T02:58:39.817Z,100700.19
2024-04-13T03:01:07.226Z,100704.49
2024-04-13T03:03:34.256Z,100701.46
2024-04-13T03:06:06.223Z,100705.02
2024-04-13T03:08:33.554Z,100708.40
2024-04-13T03:11:01.801Z,100707.21
2024-04-13T03:13:29.361Z,100703.56
2024-04-13T03:16:04.462Z,100702.00
2024-04-13T03:18:31.956Z,100697.32
2024-04-13T03:20:59.486Z,100701.92
2024-04-13T03:23:26.634Z,100705.81
2024-04-13T03:25:53.796Z,100706.91
2024-04-13T03:28:25.075Z,100709.20
2024-04-13T03:30:52.108Z,100707.51
2024-04-13T03:33:19.279Z,100709.64
2024-04-13T03:35:46.838Z,100703.19
2024-04-13T03:38:14.528Z,100700.80
2024-04-13T03:40:41.520Z,100695.92
2024-04-13T03:43:08.984Z,100697.13
2024-04-13T03:45:36.374Z,100695.55
2024-04-13T03:48:03.314Z,100694.35
2024-04-13T03:50:30.411Z,100695.04
2024-04-13T03:52:58.329Z,100695.80
2024-04-13T03:55:25.091Z,100695.85
2024-04-13T03:57:52.078Z,100694.73
2024-04-13T04:00:20.057Z,100694.52
2024-04-13T04:02:47.076Z,100693.45
2024-04-13T04:05:14.065Z,100693.90
2024-04-13T04:07:40.939Z,100692.07
2024-04-13T04:10:08.693Z,100693.58
2024-04-13T04:12:35.691Z,100692.60
2024-04-13T04:15:02.673Z,100693.20
2024-04-13T04:17:29.518Z,100691.33
2024-04-13T04:19:56.524Z,100697.63
2024-04-13T04:22:23.370Z,100700.19
2024-04-13T04:24:51.696Z,100698.02
2024-04-13T04:27:19.428Z,100696.77
2024-04-13T04:29:46.447Z,100696.15
2024-04-13T04:32:13.858Z,100699.11
2024-04-13T04:34:40.952Z,100698.40
2024-04-13T04:37:07.977Z,100700.52
2024-04-13T04:39:35.009Z,100696.09
2024-04-13T04:42:01.843Z,100698.48
2024-04-13T04:44:29.786Z,100700.02
2024-04-13T04:46:57.327Z,100700.26
2024-04-13T04:49:24.228Z,100696.59
2024-04-13T04:51:51.111Z,100698.92
2024-04-13T04:54:20.526Z,100700.54
2024-04-13T04:56:47.359Z,100699.15
2024-04-13T04:59:14.258Z,100701.36
2024-04-13T05:01:40.986Z,100700.54
2024-04-13T05:04:08.201Z,100700.84
2024-04-13T05:06:35.560Z,100701.10
2024-04-13T05:09:06.115Z,100701.87
2024-04-13T05:11:34.706Z,100701.51
2024-04-13T05:14:01.807Z,100704.56
2024-04-13T05:16:28.761Z,100707.59
2024-04-13T05:18:55.670Z,100707.00
2024-04-13T05:21:22.784Z,100712.23
2024-04-13T05:23:49.694Z,100712.02
2024-04-13T05:26:16.738Z,100712.58
2024-04-13T05:28:43.591Z,100714.91
2024-04-13T05:31:11.158Z,100715.25
2024-04-13T05:33:39.744Z,100711.04
2024-04-13T05:36:07.430Z,100712.77
2024-04-13T05:38:34.345Z,100711.26
2024-04-13T05:41:01.516Z,100710.53
2024-04-13T05:43:28.506Z,100709.92
2024-04-13T05:45:55.519Z,100708.42
2024-04-13T05:48:22.359Z,100703.11
2024-04-13T05:50:59.652Z,100700.50
2024-04-13T05:53:27.606Z,100699.27
2024-04-13T05:55:54.536Z,100701.73
2024-04-13T05:58:21.812Z,100699.06
2024-04-13T06:00:49.626Z,100693.66
2024-04-13T06:03:16.784Z,100691.86
2024-04-13T06:05:44.460Z,100690.54
2024-04-13T06:08:11.621Z,100685.96
2024-04-13T06:10:39.173Z,100681.04
2024-04-13T06:13:06.647Z,100682.02
2024-04-13T06:15:33.639Z,100677.71
2024-04-13T06:18:00.801Z,100678.96
2024-04-13T06:20:28.232Z,100676.46
2024-04-13T06:22:55.383Z,100675.08
2024-04-13T06:25:25.712Z,100681.74
2024-04-13T06:27:54.308Z,100682.59
2024-04-13T06:30:21.306Z,100682.25
2024-04-13T06:32:48.514Z,100677.84
2024-04-13T06:35:15.775Z,100677.53
2024-04-13T06:37:42.581Z,100671.08
2024-04-13T06:40:13.908Z,100675.02
2024-04-13T06:42:40.858Z,100671.49
2024-04-13T06:45:08.646Z,100675.79
2024-04-13T06:47:36.023Z,100675.05
2024-04-13T06:50:04.068Z,100675.49
2024-04-13T06:52:30.971Z,100670.39
2024-04-13T06:54:57.908Z,100662.67
2024-04-13T06:57:25.968Z,100664.01
2024-04-13T06:59:53.301Z,100663.73
2024-04-13T07:02:22.573Z,100665.00
2024-04-13T07:04:49.327Z,100664.91
2024-04-13T07:07:17.486Z,100668.01
2024-04-13T07:09:44.315Z,100666.63
2024-04-13T07:12:11.789Z,100665.30
2024-04-13T07:14:38.666Z,100659.36
2024-04-13T07:17:05.909Z,100662.44
2024-04-13T07:19:33.107Z,100659.59
2024-04-13T07:22:00.122Z,100654.27
2024-04-13T07:24:29.694Z,100649.09
2024-04-13T07:26:56.806Z,100651.27
2024-04-13T07:29:23.861Z,100651.55
2024-04-13T07:31:50.840Z,100648.68
2024-04-13T07:34:19.183Z,100647.04
2024-04-13T07:36:46.389Z,100641.86
2024-04-13T07:39:13.837Z,100635.39
2024-04-13T07:41:40.781Z,100636.28
2024-04-13T07:44:09.208Z,100635.05
2024-04-13T07:46:37.085Z,100637.55
2024-04-13T07:49:06.951Z,100631.12
2024-04-13T07:51:34.348Z,100624.66
2024-04-13T07:54:01.447Z,100616.05
2024-04-13T07:56:28.572Z,100618.56
2024-04-13T07:58:55.928Z,100617.38
2024-04-13T08:01:22.681Z,100618.71
2024-04-13T08:03:49.386Z,100612.69
2024-04-13T08:06:16.404Z,100610.88
2024-04-13T08:08:42.998Z,100608.89
2024-04-13T08:11:11.605Z,100612.52
2024-04-13T08:13:38.258Z,100610.21
2024-04-13T08:16:08.510Z,100607.89
2024-04-13T08:18:35.493Z,100603.88
2024-04-13T08:21:02.560Z,100607.55
2024-04-13T08:23:29.870Z,100607.95
2024-04-13T08:26:03.054Z,100607.80
2024-04-13T08:28:31.647Z,100606.68
2024-04-13T08:31:01.517Z,100602.75
2024-04-13T08:33:28.467Z,100602.86
2024-04-13T08:36:05.711Z,100602.96
2024-04-13T08:38:32.591Z,100612.38
2024-04-13T08:41:02.041Z,100612.86
2024-04-13T08:43:28.846Z,100611.27
2024-04-13T08:45:56.912Z,100611.19
2024-04-13T08:48:24.075Z,100614.35
2024-04-13T08:50:51.170Z,100614.19
2024-04-13T08:53:21.263Z,100615.81
2024-04-13T08:55:48.809Z,100611.95
2024-04-13T08:58:19.038Z,100607.80
2024-04-13T09:00:52.264Z,100611.28
2024-04-13T09:03:20.464Z,100605.73
2024-04-13T09:05:47.334Z,100607.33
2024-04-13T09:08:17.598Z,100612.02
2024-04-13T09:10:48.009Z,100611.02
2024-04-13T09:13:14.818Z,100608.37
2024-04-13T09:15:41.963Z,100614.29
2024-04-13T09:18:10.958Z,100613.06
2024-04-13T09:20:38.068Z,100620.70
2024-04-13T09:23:06.431Z,100607.87
2024-04-13T09:25:33.230Z,100607.41
2024-04-13T09:28:07.317Z,100608.89
2024-04-13T09:30:34.610Z,100608.89
2024-04-13T09:33:07.497Z,100615.09
2024-04-13T09:35:34.688Z,100610.00
2024-04-13T09:38:02.394Z,100619.38
2024-04-13T09:40:31.722Z,100611.40
2024-04-13T09:42:58.835Z,100619.77
2024-04-13T09:45:26.577Z,100619.07
2024-04-13T09:47:56.897Z,100615.27
2024-04-13T09:50:23.734Z,100615.08
2024-04-13T09:52:50.701Z,100610.38
2024-04-13T09:55:19.590Z,100616.54
2024-04-13T09:57:47.870Z,100610.48
2024-04-13T10:00:17.964Z,100601.51
2024-04-13T10:02:45.101Z,100609.06
2024-04-13T10:05:12.049Z,100606.33
2024-04-13T10:07:40.204Z,100604.73
2024-04-13T10:10:14.608Z,100605.59
2024-04-13T10:12:44.126Z,100601.41
2024-04-13T10:15:11.752Z,100598.82
2024-04-13T10:17:40.271Z,100597.77
2024-04-13T10:20:08.870Z,100597.71
2024-04-13T10:22:38.677Z,100593.23
2024-04-13T10:25:10.223Z,100597.98
2024-04-13T10:27:39.055Z,100598.06
2024-04-13T10:30:08.117Z,100592.04
2024-04-13T10:32:35.004Z,100589.30
2024-04-13T10:35:12.457Z,100577.52
2024-04-13T10:37:39.569Z,100577.60
2024-04-13T10:40:08.517Z,100578.06
2024-04-13T10:42:42.406Z,100573.08
2024-04-13T10:45:18.631Z,100575.39
2024-04-13T10:47:45.899Z,100578.29
2024-04-13T10:50:14.940Z,100582.45
2024-04-13T10:52:41.944Z,100587.52
2024-04-13T10:55:13.126Z,100579.13
2024-04-13T10:57:41.414Z,100580.45
2024-04-13T11:00:10.641Z,100587.80
2024-04-13T11:02:38.786Z,100584.12
2024-04-13T11:05:06.276Z,100579.36
2024-04-13T11:07:33.003Z,100586.55
2024-04-13T11:09:59.882Z,100579.52
2024-04-13T11:12:26.730Z,100572.92
2024-04-13T11:14:53.383Z,100570.94
2024-04-13T11:17:20.060Z,100576.20
2024-04-13T11:19:46.897Z,100577.92
2024-04-13T11:22:15.332Z,100573.23
2024-04-13T11:24:42.294Z,100574.56
2024-04-13T11:27:09.536Z,100579.51
2024-04-13T11:29:37.175Z,100566.02
2024-04-13T11:32:04.061Z,100574.42
2024-04-13T11:34:31.362Z,100566.93
2024-04-13T11:37:05.004Z,100558.90
2024-04-13T11:39:34.403Z,100561.71
2024-04-13T11:42:07.251Z,100556.80
2024-04-13T11:44:33.986Z,100565.88
2024-04-13T11:47:01.867Z,100573.05
2024-04-13T11:49:31.852Z,100571.83
2024-04-13T11:52:00.632Z,100567.46
2024-04-13T11:54:28.834Z,100566.86
2024-04-13T11:56:55.858Z,100564.96
2024-04-13T11:59:23.292Z,100567.31
2024-04-13T12:01:50.250Z,100559.63
2024-04-13T12:04:17.692Z,100557.04
2024-04-13T12:06:44.994Z,100548.65
2024-04-13T12:09:12.870Z,100550.34
2024-04-13T12:11:39.658Z,100541.23
2024-04-13T12:14:08.087Z,100536.10
2024-04-13T12:16:34.682Z,100537.09
2024-04-13T12:19:03.601Z,100542.52
2024-04-13T12:21:30.903Z,100535.50
2024-04-13T12:24:01.011Z,100540.84
2024-04-13T12:26:28.808Z,100533.48
2024-04-13T12:28:55.605Z,100533.07
2024-04-13T12:31:22.251Z,100533.50
2024-04-13T12:33:49.024Z,100532.03
2024-04-13T12:36:16.083Z,100531.61
2024-04-13T12:38:42.820Z,100530.33
2024-04-13T12:41:11.675Z,100532.83
2024-04-13T12:43:38.465Z,100538.48
2024-04-13T12:46:05.402Z,100531.73
2024-04-13T12:48:32.171Z,100531.90
2024-04-13T12:50:58.851Z,100541.15
2024-04-13T12:53:25.674Z,100541.91
2024-04-13T12:55:53.396Z,100525.14
2024-04-13T12:58:20.548Z,100526.80
2024-04-13T13:00:47.318Z,100525.05
2024-04-13T13:03:14.141Z,100520.58
2024-04-13T13:05:45.577Z,100520.41
2024-04-13T13:08:13.303Z,100522.07
2024-04-13T13:10:39.967Z,100524.45
2024-04-13T13:13:07.307Z,100522.23
2024-04-13T13:15:34.172Z,100516.55
2024-04-13T13:18:00.976Z,100519.50
2024-04-13T13:20:28.219Z,100520.66
2024-04-13T13:22:54.896Z,100520.05
2024-04-13T13:25:21.588Z,100517.27
2024-04-13T13:27:48.575Z,100510.20
2024-04-13T13:30:15.873Z,100509.35
2024-04-13T13:32:45.967Z,100509.34
2024-04-13T13:35:12.920Z,100501.05
2024-04-13T13:37:40.053Z,100502.92
2024-04-13T13:40:12.525Z,100496.69
2024-04-13T13:42:39.356Z,100499.83
2024-04-13T13:45:07.053Z,100501.45
2024-04-13T13:47:33.988Z,100499.85
2024-04-13T13:50:01.227Z,100501.73
2024-04-13T13:52:28.174Z,100500.94
2024-04-13T13:54:55.111Z,100497.00
2024-04-13T13:57:22.059Z,100495.58
2024-04-13T13:59:48.724Z,100494.60
2024-04-13T14:02:16.666Z,100498.35
2024-04-13T14:04:49.284Z,100499.80
2024-04-13T14:07:16.976Z,100501.13
2024-04-13T14:09:44.929Z,100496.81
2024-04-13T14:12:12.291Z,100489.77
2024-04-13T14:14:38.949Z,100495.23
2024-04-13T14:17:05.748Z,100497.48
2024-04-13T14:19:32.396Z,100494.83
2024-04-13T14:21:59.726Z,100493.05
2024-04-13T14:24:27.735Z,100495.79
2024-04-13T14:26:54.566Z,100492.69
2024-04-13T14:29:21.698Z,100491.38
2024-04-13T14:31:48.852Z,100485.33
2024-04-13T14:34:15.572Z,100486.73
2024-04-13T14:36:42.764Z,100489.20
2024-04-13T14:39:09.430Z,100482.52
2024-04-13T14:41:36.365Z,100481.23
2024-04-13T14:44:03.396Z,100481.81
2024-04-13T14:46:30.514Z,100483.39
2024-04-13T14:48:57.315Z,100482.61
2024-04-13T14:51:24.318Z,100481.55
2024-04-13T14:53:51.653Z,100483.56
2024-04-13T14:56:21.563Z,100481.89
2024-04-13T14:58:49.935Z,100481.84
2024-04-13T15:01:16.867Z,100485.30
2024-04-13T15:03:43.794Z,100477.48
2024-04-13T15:06:10.797Z,100479.42
2024-04-13T15:08:37.786Z,100475.39
2024-04-13T15:11:04.820Z,100472.73
2024-04-13T15:13:31.526Z,100472.92
2024-04-13T15:15:58.497Z,100477.00
2024-04-13T15:18:25.752Z,100475.83
2024-04-13T15:20:52.641Z,100478.96
2024-04-13T15:23:20.229Z,100480.45
2024-04-13T15:25:47.453Z,100484.53
2024-04-13T15:28:14.374Z,100484.05
2024-04-13T15:30:41.609Z,100482.57
2024-04-13T15:33:08.993Z,100481.80
2024-04-13T15:35:35.691Z,100480.29
2024-04-13T15:38:02.915Z,100473.98
2024-04-13T15:40:30.424Z,100474.31
2024-04-13T15:42:57.458Z,100474.21
2024-04-13T15:45:24.303Z,100476.90
2024-04-13T15:47:51.241Z,100475.45
2024-04-13T15:50:18.057Z,100468.05
2024-04-13T15:52:47.389Z,100474.20
2024-04-13T15:55:15.942Z,100466.70
2024-04-13T15:57:42.983Z,100458.02
2024-04-13T16:00:13.876Z,100455.92
2024-04-13T16:02:41.496Z,100456.55
2024-04-13T16:05:08.748Z,100462.88
2024-04-13T16:07:35.992Z,100460.59
2024-04-13T16:10:03.066Z,100460.38
2024-04-13T16:12:30.306Z,100459.98
2024-04-13T16:14:57.266Z,100459.27
2024-04-13T16:17:24.240Z,100457.20
2024-04-13T16:19:51.556Z,100457.95
2024-04-13T16:22:18.439Z,100460.87
2024-04-13T16:24:48.810Z,100455.16
2024-04-13T16:27:17.532Z,100456.03
2024-04-13T16:29:44.176Z,100459.09
2024-04-13T16:32:11.755Z,100459.32
2024-04-13T16:34:39.161Z,100459.42
2024-04-13T16:37:06.177Z,100460.63
2024-04-13T16:39:33.285Z,100458.84
2024-04-13T16:42:00.058Z,100454.73
2024-04-13T16:44:30.159Z,100456.95
2024-04-13T16:46:57.800Z,100454.77
2024-04-13T16:49:25.193Z,100451.48
2024-04-13T16:51:53.395Z,100452.15
2024-04-13T16:54:22.172Z,100453.29
2024-04-13T16:56:49.160Z,100450.58
2024-04-13T16:59:16.221Z,100439.60
2024-04-13T17:01:43.084Z,100438.20
2024-04-13T17:04:10.083Z,100445.10
2024-04-13T17:06:37.187Z,100443.66
2024-04-13T17:09:04.861Z,100442.02
2024-04-13T17:11:31.936Z,100451.55
2024-04-13T17:13:58.673Z,100456.40
2024-04-13T17:16:25.944Z,100456.77
2024-04-13T17:18:53.578Z,100454.48
2024-04-13T17:21:20.905Z,100455.58
2024-04-13T17:23:47.995Z,100454.42
2024-04-13T17:26:14.958Z,100452.66
2024-04-13T17:28:41.982Z,100449.58
2024-04-13T17:31:10.754Z,100451.88
2024-04-13T17:33:39.843Z,100456.84
2024-04-13T17:36:09.767Z,100456.73
2024-04-13T17:38:37.761Z,100454.41
2024-04-13T17:41:04.868Z,100454.30
2024-04-13T17:43:31.986Z,100455.36
2024-04-13T17:45:59.100Z,100455.11
2024-04-13T17:48:26.424Z,100452.94
2024-04-13T17:50:54.664Z,100451.99
2024-04-13T17:53:21.820Z,100455.02
2024-04-13T17:55:48.728Z,100449.67
2024-04-13T17:58:15.773Z,100454.13
2024-04-13T18:00:42.695Z,100454.48
2024-04-13T18:03:09.945Z,100452.52
2024-04-13T18:05:37.105Z,100455.66
2024-04-13T18:08:05.899Z,100459.73
2024-04-13T18:10:35.928Z,100467.42
2024-04-13T18:13:02.893Z,100462.20
2024-04-13T18:15:30.592Z,100459.33
2024-04-13T18:17:57.801Z,100458.69
2024-04-13T18:20:26.431Z,100459.11
2024-04-13T18:22:53.258Z,100453.04
2024-04-13T18:25:20.196Z,100453.43
2024-04-13T18:27:47.400Z,100448.60
2024-04-13T18:30:14.977Z,100450.77
2024-04-13T18:32:42.194Z,100446.05
2024-04-13T18:35:09.664Z,100447.36
2024-04-13T18:37:36.735Z,100450.80
2024-04-13T18:40:04.297Z,100454.89
2024-04-13T18:42:31.114Z,100456.05
2024-04-13T18:44:58.645Z,100451.75
2024-04-13T18:47:25.315Z,100448.61
2024-04-13T18:49:54.994Z,100444.80
2024-04-13T18:52:23.030Z,100441.68
2024-04-13T18:54:50.421Z,100440.98
2024-04-13T18:57:17.464Z,100442.63
2024-04-13T18:59:44.493Z,100445.69
2024-04-13T19:02:14.306Z,100437.33
2024-04-13T19:04:41.306Z,100438.41
2024-04-13T19:07:08.030Z,100434.95
2024-04-13T19:09:35.095Z,100433.64
2024-04-13T19:12:01.859Z,100424.94
2024-04-13T19:14:28.910Z,100419.99
2024-04-13T19:16:55.700Z,100416.35
2024-04-13T19:19:22.457Z,100412.14
2024-04-13T19:21:52.945Z,100413.31
2024-04-13T19:24:20.368Z,100413.17
2024-04-13T19:26:47.422Z,100411.60
2024-04-13T19:29:14.991Z,100414.73
2024-04-13T19:31:41.966Z,100413.88
2024-04-13T19:34:09.902Z,100414.38
2024-04-13T19:36:36.838Z,100414.30
2024-04-13T19:39:03.847Z,100422.02
2024-04-13T19:41:30.602Z,100424.91
2024-04-13T19:43:57.291Z,100426.26
2024-04-13T19:46:24.272Z,100420.31
2024-04-13T19:48:51.095Z,100425.17
2024-04-13T19:51:17.880Z,100420.94
2024-04-13T19:53:48.148Z,100420.70
2024-04-13T19:56:15.563Z,100417.27
2024-04-13T19:58:42.411Z,100422.46
2024-04-13T20:01:10.034Z,100429.77
2024-04-13T20:03:37.842Z,100415.50
2024-04-13T20:06:05.525Z,100408.42
2024-04-13T20:08:32.313Z,100408.54
2024-04-13T20:11:05.588Z,100405.33
2024-04-13T20:13:32.426Z,100404.60
2024-04-13T20:16:17.072Z,100407.16
2024-04-13T20:18:43.852Z,100410.39
2024-04-13T20:21:11.432Z,100404.88
2024-04-13T20:23:38.405Z,100402.34
2024-04-13T20:26:05.461Z,100397.22
2024-04-13T20:28:32.033Z,100392.67
2024-04-13T20:30:59.277Z,100393.75
2024-04-13T20:33:26.204Z,100388.92
2024-04-13T20:35:53.348Z,100385.85
2024-04-13T20:38:21.312Z,100386.98
2024-04-13T20:40:48.001Z,100388.54
2024-04-13T20:43:15.311Z,100380.13
2024-04-13T20:45:42.648Z,100375.99
2024-04-13T20:48:11.419Z,100374.86
2024-04-13T20:50:41.007Z,100377.16
2024-04-13T20:53:08.823Z,100375.33
2024-04-13T20:55:35.887Z,100376.27
2024-04-13T20:58:02.935Z,100370.02
2024-04-13T21:00:32.020Z,100369.39
2024-04-13T21:02:58.726Z,100368.30
2024-04-13T21:05:25.592Z,100369.92
2024-04-13T21:07:52.263Z,100369.77
2024-04-13T21:10:19.130Z,100367.27
2024-04-13T21:12:45.753Z,100360.58
2024-04-13T21:15:12.401Z,100358.92
2024-04-13T21:17:39.067Z,100355.75
2024-04-13T21:20:07.082Z,100359.10
2024-04-13T21:22:33.703Z,100357.19
2024-04-13T21:25:02.788Z,100354.79
2024-04-13T21:27:29.990Z,100341.83
2024-04-13T21:29:56.727Z,100340.13
2024-04-13T21:32:23.559Z,100343.57
2024-04-13T21:34:50.912Z,100347.16
2024-04-13T21:37:17.625Z,100345.97
2024-04-13T21:39:44.412Z,100338.98
2024-04-13T21:42:11.375Z,100336.02
2024-04-13T21:44:38.280Z,100334.34
2024-04-13T21:47:05.396Z,100328.64
2024-04-13T21:49:32.263Z,100331.50
2024-04-13T21:51:59.162Z,100328.73
2024-04-13T21:54:26.442Z,100334.55
2024-04-13T21:56:53.334Z,100327.73
2024-04-13T21:59:20.193Z,100323.35
2024-04-13T22:01:47.228Z,100320.56
2024-04-13T22:04:14.049Z,100316.66
2024-04-13T22:06:42.200Z,100315.34
2024-04-13T22:09:09.297Z,100309.11
2024-04-13T22:11:35.990Z,100308.58
2024-04-13T22:14:02.596Z,100308.94
2024-04-13T22:16:29.772Z,100303.88
2024-04-13T22:18:59.423Z,100304.58
2024-04-13T22:21:27.778Z,100303.04
2024-04-13T22:23:54.921Z,100298.48
2024-04-13T22:26:21.746Z,100287.61
2024-04-13T22:28:48.409Z,100290.84
2024-04-13T22:31:15.436Z,100287.80
2024-04-13T22:33:42.554Z,100284.48
2024-04-13T22:36:11.450Z,100278.23
2024-04-13T22:38:38.507Z,100279.23
2024-04-13T22:41:05.267Z,100275.70
2024-04-13T22:43:32.034Z,100271.27
2024-04-13T22:45:59.009Z,100266.57
2024-04-13T22:48:26.031Z,100257.91
2024-04-13T22:50:53.151Z,100257.70
2024-04-13T22:53:19.777Z,100255.67
2024-04-13T22:55:46.661Z,100252.77
2024-04-13T22:58:13.531Z,100251.47
2024-04-13T23:00:41.640Z,100245.65
2024-04-13T23:03:08.339Z,100244.59
2024-04-13T23:05:34.990Z,100244.44
2024-04-13T23:08:01.633Z,100238.65
2024-04-13T23:10:28.375Z,100237.23
2024-04-13T23:12:55.122Z,100238.74
2024-04-13T23:15:21.820Z,100229.57
2024-04-13T23:17:48.567Z,100223.07
2024-04-13T23:20:15.248Z,100216.58
2024-04-13T23:22:41.852Z,100214.74
2024-04-13T23:25:09.344Z,100217.54
2024-04-13T23:27:35.966Z,100216.47
2024-04-13T23:30:04.775Z,100213.66
2024-04-13T23:32:32.204Z,100209.23
2024-04-13T23:34:58.802Z,100205.94
2024-04-13T23:37:26.706Z,100207.67
2024-04-13T23:39:53.533Z,100203.96
2024-04-13T23:42:20.494Z,100192.45
2024-04-13T23:44:49.878Z,100184.63
2024-04-13T23:47:16.608Z,100175.69
2024-04-13T23:49:44.063Z,100176.35
2024-04-13T23:52:11.265Z,100166.90
2024-04-13T23:54:38.175Z,100161.81
2024-04-13T23:57:05.315Z,100165.29
2024-04-13T23:59:32.340Z,100166.41
